Главная страница
METAR-TAF:

METAR-TAF

Аэропорты :

Раротонга, Острова Кука

широта: 21-12S, долгота: 159-49W, высота над уровнем моря: 7 м

Текущие метеонаблюдения

Эта сводка был подготовлена 7 минут назад, в 19:00 UTC
Ветер 4 Узел от южный
Температура 26°C
Влажность 79%
Давление 1011 hPa
Видимость 10 км и более
Отдельные облака на высоте 2000 фута

METAR: NCRG 231900Z 17004KT 9999 SCT020 26/22 Q1011

Время: 09:07 (19:07 UTC)

Прогноз

Эта сводка был подготовлена 1 час и 59 минут назад, в 17:08 UTC
Прогноз действительный с 23-го 18 UTC до 24-го 18 UTC
Ветер 5 Узел от восточно-юго-восточный
Видимость 10 км и более
Отдельные облака на высоте 2000 фута
Рассеянная облачность на высоте 10000 фута
Вероятность 30% :
временами
С 23-го 18 UTC до 24-го 06 UTC
Видимость: 5000 м
Рассеянная облачность на высоте 1500 фута
ливневые дожди

TAF: NCRG 231708Z 2318/2418 12005KT 9999 SCT020 BKN100 PROB30 TEMPO 2318/2406 5000 SHRA BKN015

Метеонаблюдения и прогнозы для более 4000 аэропортов (сводки METAR и TAF).

Имеющиеся станции представлены на карте желтыми и красными точками.

Чтобы увидеть название станции, наведите на нее мышь.

Затем щелкните, чтобы увидеть метеонаблюдения и метеопрогнозы.

Управление картой: чтобы увеличить масштаб, щелкните зеленые кнопки с черным крестиком; чтобы уменьшить масштаб, щелкните зеленую кнопку с тире; для просмотра соседних карт щелкайте зеленые стрелки.


METAR-TAF: